Time;durP1;ratioP1;P1;durP2;ratioP2;P2;SDS_P1;SDS_P2;PMS_P1;PMS_P2;Temp;Humidity;BMP_temperature;BMP_pressure;BME280_temperature;BME280_humidity;BME280_pressure;Samples;Min_cycle;Max_cycle;Signal;HPM_P1;HPM_P2
2021/07/01 00:00:25;;;;;;;5.93;3.58;;;;;;;16.78;46.98;101016.47;3581070;40;20044;-72
2021/07/01 00:02:53;;;;;;;6.13;3.58;;;;;;;16.76;46.37;101010.25;3581245;40;20033;-71
2021/07/01 00:05:23;;;;;;;4.97;3.30;;;;;;;16.76;46.55;101013.03;3563570;40;20037;-70
2021/07/01 00:07:52;;;;;;;5.05;3.38;;;;;;;16.72;46.89;101014.38;3581705;40;20033;-70
2021/07/01 00:10:22;;;;;;;4.95;2.97;;;;;;;16.73;46.71;101016.09;3571838;40;20122;-71
2021/07/01 00:12:50;;;;;;;4.95;3.30;;;;;;;16.70;47.21;101013.69;3580885;40;20034;-72
2021/07/01 00:15:21;;;;;;;5.30;3.42;;;;;;;16.70;46.91;101015.59;3571724;40;20041;-73
2021/07/01 00:17:49;;;;;;;4.75;3.17;;;;;;;16.67;46.96;101018.69;3571559;40;20037;-72
2021/07/01 00:20:18;;;;;;;5.05;3.35;;;;;;;16.68;46.71;101020.41;3580572;40;20072;-72
2021/07/01 00:22:48;;;;;;;6.63;3.63;;;;;;;16.68;47.06;101023.19;3580761;40;20131;-70
2021/07/01 00:25:16;;;;;;;5.13;3.35;;;;;;;16.65;47.05;101029.03;3581087;40;20064;-72
2021/07/01 00:27:45;;;;;;;6.53;3.45;;;;;;;16.64;47.20;101019.00;3580613;40;20340;-72
2021/07/01 00:30:16;;;;;;;7.90;3.53;;;;;;;16.66;46.89;101036.28;3580692;40;20034;-71
2021/07/01 00:32:44;;;;;;;4.88;3.38;;;;;;;16.64;47.32;101030.94;3581157;40;20053;-72
2021/07/01 00:35:13;;;;;;;4.80;3.47;;;;;;;16.64;47.05;101021.78;3580994;40;20048;-72
2021/07/01 00:37:42;;;;;;;6.38;3.97;;;;;;;16.64;47.30;101019.88;3571380;40;20068;-71
2021/07/01 00:40:13;;;;;;;5.55;3.72;;;;;;;16.66;47.44;101017.81;3571800;40;20331;-71
2021/07/01 00:42:42;;;;;;;4.68;3.35;;;;;;;16.63;47.56;101018.16;3581387;40;20104;-72
2021/07/01 00:45:11;;;;;;;5.35;3.40;;;;;;;16.65;47.30;101026.25;3571893;40;20030;-72
2021/07/01 00:47:39;;;;;;;4.78;2.92;;;;;;;16.65;47.38;101031.78;3581012;40;20040;-71
2021/07/01 00:50:11;;;;;;;4.60;3.15;;;;;;;16.67;47.26;101026.97;3580794;40;20308;-72
2021/07/01 00:52:40;;;;;;;5.00;3.55;;;;;;;16.65;46.92;101027.13;3571972;40;20053;-70
2021/07/01 00:55:11;;;;;;;4.57;3.03;;;;;;;16.68;47.41;101028.72;3580803;40;20037;-72
2021/07/01 00:57:42;;;;;;;4.72;3.45;;;;;;;16.65;47.09;101024.38;3571577;40;20037;-71
2021/07/01 01:00:30;;;;;;;5.18;3.65;;;;;;;16.67;47.51;101025.06;3570759;40;20040;-71
2021/07/01 01:02:59;;;;;;;5.05;3.22;;;;;;;16.66;47.26;101033.53;3571480;40;20033;-72
2021/07/01 01:05:28;;;;;;;4.25;2.95;;;;;;;16.66;46.89;101034.38;3571062;40;20110;-72
2021/07/01 01:07:58;;;;;;;5.00;3.10;;;;;;;16.66;46.77;101036.28;3571083;40;20025;-72
2021/07/01 01:10:29;;;;;;;5.47;2.83;;;;;;;16.66;47.08;101031.63;3571081;40;20072;-72
2021/07/01 01:13:35;;;;;;;5.20;3.03;;;;;;;16.60;47.33;101029.56;3566907;40;20033;-72
2021/07/01 01:16:21;;;;;;;4.95;3.35;;;;;;;16.60;47.32;101032.31;3580125;40;20033;-72
2021/07/01 01:18:51;;;;;;;4.45;2.78;;;;;;;16.61;47.29;101027.66;3580642;40;20048;-74
2021/07/01 01:21:24;;;;;;;5.13;2.95;;;;;;;16.63;46.87;101025.59;3571068;40;20033;-71
2021/07/01 01:23:58;;;;;;;4.93;2.83;;;;;;;16.61;46.85;101024.88;3580439;40;20040;-72
2021/07/01 01:26:26;;;;;;;5.38;2.85;;;;;;;16.59;47.15;101026.94;3558506;40;20038;-71
2021/07/01 01:28:57;;;;;;;5.05;3.15;;;;;;;16.58;47.43;101028.84;3550578;40;20053;-71
2021/07/01 01:31:28;;;;;;;4.45;2.65;;;;;;;16.60;47.23;101026.78;3568207;40;20033;-72
2021/07/01 01:33:57;;;;;;;4.05;2.50;;;;;;;16.57;47.30;101018.81;3562864;40;20044;-70
2021/07/01 01:36:26;;;;;;;5.03;2.83;;;;;;;16.59;46.70;101024.19;3611491;22;20044;-82
2021/07/01 01:54:02;;;;;;;5.90;2.78;;;;;;;16.37;47.36;101012.69;3644392;22;20309;-72
2021/07/01 01:56:37;;;;;;;4.20;2.58;;;;;;;16.39;46.95;101018.03;3610224;39;20397;-73
2021/07/01 01:59:10;;;;;;;4.97;3.08;;;;;;;16.38;46.85;101011.66;3610344;39;20055;-72
2021/07/01 02:01:56;;;;;;;4.85;3.03;;;;;;;16.38;47.18;101013.56;3616744;39;20047;-71
2021/07/01 02:04:39;;;;;;;4.93;3.30;;;;;;;16.38;47.50;101013.56;3600885;39;20031;-72
2021/07/01 02:07:07;;;;;;;4.53;2.97;;;;;;;16.39;47.66;101010.59;3615814;39;20047;-72
2021/07/01 02:10:05;;;;;;;5.05;3.00;;;;;;;16.41;47.24;101016.84;3603026;39;20069;-72
2021/07/01 02:12:34;;;;;;;4.93;3.03;;;;;;;16.38;46.96;101014.44;3600035;39;20337;-72
2021/07/01 02:15:07;;;;;;;6.28;3.42;;;;;;;16.41;47.10;101024.25;3599718;39;20056;-72
2021/07/01 02:17:45;;;;;;;5.72;3.40;;;;;;;16.39;47.22;101026.31;3599753;39;20398;-73
2021/07/01 02:20:16;;;;;;;4.70;3.35;;;;;;;16.40;47.13;101017.88;3597746;39;20040;-73
2021/07/01 02:22:45;;;;;;;4.90;3.17;;;;;;;16.38;47.01;101010.81;3605526;39;20032;-72
2021/07/01 02:25:16;;;;;;;5.30;3.30;;;;;;;16.40;47.55;101019.75;3595511;39;20051;-72
2021/07/01 02:28:01;;;;;;;4.80;3.17;;;;;;;16.37;47.25;101020.13;3593409;39;20047;-72
2021/07/01 02:30:30;;;;;;;5.40;3.38;;;;;;;16.36;46.96;101010.97;3609514;39;20083;-72
2021/07/01 02:32:58;;;;;;;6.35;3.75;;;;;;;16.36;47.29;101015.63;3605937;39;20046;-72
2021/07/01 02:35:33;;;;;;;6.00;3.65;;;;;;;16.35;46.72;101019.41;3609228;39;20406;-72
2021/07/01 02:38:27;;;;;;;6.45;3.50;;;;;;;16.32;47.32;101023.34;3592254;40;20383;-73
2021/07/01 02:41:07;;;;;;;5.38;2.90;;;;;;;16.33;47.44;101024.22;3598998;39;20458;-72
2021/07/01 02:43:41;;;;;;;4.40;3.05;;;;;;;16.32;47.43;101014.22;3591478;40;20412;-73
2021/07/01 02:46:28;;;;;;;5.97;3.67;;;;;;;16.31;47.49;101018.00;3596398;39;20035;-71
2021/07/01 02:48:57;;;;;;;5.45;3.65;;;;;;;16.31;47.50;101009.72;3612402;39;20056;-72
2021/07/01 02:51:26;;;;;;;5.72;3.40;;;;;;;16.30;47.27;101016.28;3607795;39;20079;-72
2021/07/01 02:53:55;;;;;;;4.70;3.38;;;;;;;16.30;47.28;101022.66;3613060;39;20067;-72
2021/07/01 02:56:39;;;;;;;4.63;3.22;;;;;;;16.29;47.33;101015.44;3609041;39;20133;-72
2021/07/01 02:59:14;;;;;;;7.13;3.40;;;;;;;16.29;46.90;101017.31;3591329;39;20059;-72
2021/07/01 03:02:08;;;;;;;4.40;3.13;;;;;;;16.27;47.62;101022.13;3606111;39;20052;-72
2021/07/01 03:04:44;;;;;;;5.35;3.17;;;;;;;16.26;47.53;101024.03;3594028;39;20140;-73
2021/07/01 03:07:13;;;;;;;6.45;3.92;;;;;;;16.26;47.41;101021.25;3595462;39;20047;-72
2021/07/01 03:09:42;;;;;;;4.65;3.10;;;;;;;16.26;47.11;101015.75;3597897;39;20036;-72
2021/07/01 03:12:12;;;;;;;6.38;3.50;;;;;;;16.27;47.08;101017.47;3605305;39;20055;-72
2021/07/01 03:14:41;;;;;;;7.47;3.67;;;;;;;16.26;47.27;101014.88;3600915;39;20051;-73
2021/07/01 03:17:11;;;;;;;5.43;3.38;;;;;;;16.24;47.49;101009.50;3602265;39;20390;-72
2021/07/01 03:19:39;;;;;;;6.13;3.50;;;;;;;16.25;47.66;101014.00;3591907;39;20052;-72
2021/07/01 03:22:26;;;;;;;5.45;3.63;;;;;;;16.23;47.41;101013.31;3609934;39;20047;-72
2021/07/01 03:24:56;;;;;;;5.80;3.45;;;;;;;16.23;47.13;101010.53;3580381;40;20049;-72
2021/07/01 03:27:25;;;;;;;4.75;3.47;;;;;;;16.24;47.48;101020.56;3580434;40;20361;-72
2021/07/01 03:29:54;;;;;;;6.65;3.92;;;;;;;16.23;47.30;101017.97;3571638;40;20040;-72
2021/07/01 03:32:22;;;;;;;6.65;3.95;;;;;;;16.23;47.22;101010.53;3580582;40;20059;-72
2021/07/01 03:34:50;;;;;;;5.78;3.83;;;;;;;16.23;47.69;101017.97;3595629;39;20054;-74
2021/07/01 03:37:38;;;;;;;5.95;3.85;;;;;;;16.21;47.21;101020.91;3610396;39;20046;-72
2021/07/01 03:40:25;;;;;;;5.72;4.20;;;;;;;16.21;47.21;101023.66;3596987;40;20036;-72
2021/07/01 03:42:55;;;;;;;5.78;3.95;;;;;;;16.23;47.68;101021.59;3601580;39;20059;-72
2021/07/01 03:45:23;;;;;;;7.25;4.38;;;;;;;16.21;47.24;101025.56;3610791;39;20055;-73
2021/07/01 03:47:51;;;;;;;7.65;4.43;;;;;;;16.20;47.19;101024.69;3600195;39;20043;-72
2021/07/01 03:50:20;;;;;;;6.88;4.40;;;;;;;16.17;47.61;101020.34;3586597;39;20047;-72
2021/07/01 03:53:07;;;;;;;6.85;4.55;;;;;;;16.16;47.71;101023.28;3601354;39;20044;-72
2021/07/01 03:55:36;;;;;;;7.47;4.72;;;;;;;16.17;47.58;101027.78;3592765;39;20421;-72
2021/07/01 03:58:05;;;;;;;6.80;4.45;;;;;;;16.18;47.50;101024.00;3600325;39;20428;-72
2021/07/01 04:00:34;;;;;;;6.32;4.53;;;;;;;16.14;47.63;101019.81;3590543;40;20044;-73
2021/07/01 04:03:07;;;;;;;6.68;4.63;;;;;;;16.12;47.42;101028.28;3592368;39;20051;-72
2021/07/01 04:06:06;;;;;;;6.10;4.05;;;;;;;16.10;47.74;101029.47;3600468;39;20055;-72
2021/07/01 04:08:36;;;;;;;6.57;4.35;;;;;;;16.09;48.22;101030.50;3588284;40;20040;-72
2021/07/01 04:11:09;;;;;;;8.05;5.20;;;;;;;16.07;47.97;101033.41;3600747;39;20124;-72
2021/07/01 04:13:39;;;;;;;8.05;3.92;;;;;;;16.09;47.70;101034.13;3592905;39;20055;-72
2021/07/01 04:16:25;;;;;;;6.60;3.50;;;;;;;16.04;47.79;101042.03;3600183;39;20048;-72
2021/07/01 04:19:12;;;;;;;4.38;2.65;;;;;;;16.04;47.56;101038.41;3606629;39;20403;-72
2021/07/01 04:21:59;;;;;;;5.30;2.65;;;;;;;16.01;47.62;101039.59;3604186;39;20032;-71
2021/07/01 04:25:00;;;;;;;4.68;2.60;;;;;;;15.99;47.87;101044.41;3577623;40;20056;-71
2021/07/01 04:27:34;;;;;;;4.55;2.45;;;;;;;15.96;48.09;101047.50;3570794;40;20065;-72
2021/07/01 04:30:05;;;;;;;3.70;2.15;;;;;;;15.98;48.03;101052.84;3569223;40;20049;-72
2021/07/01 04:32:53;;;;;;;5.65;2.67;;;;;;;15.93;47.99;101042.31;3569869;40;20129;-72
2021/07/01 04:35:22;;;;;;;5.07;2.90;;;;;;;15.92;48.20;101048.84;3565127;40;20055;-71
2021/07/01 04:37:50;;;;;;;6.00;2.55;;;;;;;15.92;48.11;101047.97;3574616;40;20133;-72
2021/07/01 04:40:19;;;;;;;6.32;3.38;;;;;;;15.91;47.74;101051.75;3577626;40;20166;-71
2021/07/01 04:42:48;;;;;;;5.03;3.05;;;;;;;15.90;48.31;101042.63;3577502;40;20071;-72
2021/07/01 04:45:17;;;;;;;6.53;3.28;;;;;;;15.92;48.29;101046.09;3573527;40;20061;-73
2021/07/01 04:47:45;;;;;;;7.68;3.65;;;;;;;15.90;47.90;101045.38;3566577;40;20051;-72
2021/07/01 04:50:13;;;;;;;5.63;3.42;;;;;;;15.90;48.59;101050.88;3573593;40;20049;-72
2021/07/01 04:52:41;;;;;;;5.93;3.58;;;;;;;15.91;48.34;101046.25;3570225;40;20085;-72
2021/07/01 04:55:22;;;;;;;6.50;3.38;;;;;;;15.91;48.26;101049.00;3576411;40;20033;-72
2021/07/01 04:58:09;;;;;;;6.60;3.80;;;;;;;15.90;48.25;101050.88;3577620;40;20052;-71
2021/07/01 05:00:45;;;;;;;5.80;3.70;;;;;;;15.93;48.89;101050.59;3584221;39;20391;-72
2021/07/01 05:03:34;;;;;;;7.03;4.25;;;;;;;15.91;48.57;101040.72;3575223;40;20404;-72
2021/07/01 05:06:04;;;;;;;7.95;4.22;;;;;;;15.92;48.61;101043.31;3559879;40;20035;-73
2021/07/01 05:08:34;;;;;;;7.50;4.55;;;;;;;15.94;48.51;101048.69;3552549;40;20057;-73
2021/07/01 05:11:03;;;;;;;7.03;4.38;;;;;;;15.95;48.17;101051.28;3549870;40;20054;-72
2021/07/01 05:13:32;;;;;;;9.57;5.22;;;;;;;15.95;48.18;101048.53;3553645;40;20068;-72
2021/07/01 05:16:02;;;;;;;8.43;5.63;;;;;;;15.98;48.64;101052.84;3573711;40;20051;-72
2021/07/01 05:18:31;;;;;;;7.65;5.20;;;;;;;15.96;48.03;101047.50;3568241;40;20380;-72
2021/07/01 05:21:16;;;;;;;10.70;5.93;;;;;;;15.95;48.25;101054.03;3574535;40;20047;-71
2021/07/01 05:24:07;;;;;;;7.85;5.07;;;;;;;15.95;48.22;101054.03;3562084;40;20052;-72
2021/07/01 05:26:58;;;;;;;8.35;5.05;;;;;;;15.93;48.27;101052.47;3567772;40;20041;-72
2021/07/01 05:29:45;;;;;;;7.50;5.00;;;;;;;15.91;48.18;101049.00;3566511;40;20418;-72
2021/07/01 05:32:50;;;;;;;9.93;5.22;;;;;;;15.90;48.54;101053.66;3565159;40;20056;-72
2021/07/01 05:35:27;;;;;;;7.22;5.30;;;;;;;15.88;48.51;101050.22;3570058;40;20139;-72
2021/07/01 05:37:58;;;;;;;7.63;5.15;;;;;;;15.87;48.40;101051.25;3551942;40;20054;-72
2021/07/01 05:40:29;;;;;;;9.30;5.47;;;;;;;15.87;48.43;101044.84;3570448;40;20052;-73
2021/07/01 05:43:00;;;;;;;8.55;4.97;;;;;;;15.88;48.39;101052.09;3598470;39;20031;-72
2021/07/01 05:45:30;;;;;;;8.43;5.63;;;;;;;15.88;48.40;101049.34;3596715;39;20036;-71
2021/07/01 05:47:59;;;;;;;9.05;5.68;;;;;;;15.90;48.37;101050.03;3597565;39;20055;-71
2021/07/01 05:50:30;;;;;;;10.30;5.93;;;;;;;15.88;48.26;101041.94;3596863;39;20079;-71
2021/07/01 05:53:01;;;;;;;9.85;5.63;;;;;;;15.87;48.20;101040.19;3610000;39;20037;-72
2021/07/01 05:55:29;;;;;;;9.90;5.78;;;;;;;15.88;48.59;101049.34;3596837;39;20044;-73
2021/07/01 05:57:58;;;;;;;9.50;5.35;;;;;;;15.87;47.97;101042.97;3607774;39;20068;-73
2021/07/01 06:00:26;;;;;;;9.43;5.47;;;;;;;15.86;47.94;101043.97;3610370;39;20043;-73
2021/07/01 06:02:54;;;;;;;8.80;4.82;;;;;;;15.85;48.31;101046.91;3609833;39;20102;-73
2021/07/01 06:05:24;;;;;;;9.95;5.53;;;;;;;15.85;47.84;101056.03;3604467;39;20051;-72
2021/07/01 06:08:13;;;;;;;10.60;5.47;;;;;;;15.81;48.00;101055.50;3595489;39;20044;-72
2021/07/01 06:10:43;;;;;;;7.78;5.32;;;;;;;15.80;48.36;101062.06;3595275;39;20048;-70
2021/07/01 06:13:21;;;;;;;7.53;5.28;;;;;;;15.80;48.11;101052.91;3606043;39;20144;-70
2021/07/01 06:15:50;;;;;;;7.80;4.88;;;;;;;15.80;48.18;101063.94;3590066;40;20055;-70
2021/07/01 06:18:20;;;;;;;8.40;4.80;;;;;;;15.77;47.55;101059.63;3604965;39;20407;-71
2021/07/01 06:20:50;;;;;;;7.53;4.68;;;;;;;15.77;48.16;101056.84;3606516;39;20051;-70
2021/07/01 06:23:19;;;;;;;8.13;5.40;;;;;;;15.76;47.87;101062.53;3608101;39;20402;-70
2021/07/01 06:25:48;;;;;;;6.35;3.67;;;;;;;15.76;48.24;101057.00;3599755;39;20068;-66
2021/07/01 06:28:17;;;;;;;9.00;4.53;;;;;;;15.76;48.84;101066.16;3598255;39;20379;-66
2021/07/01 06:30:46;;;;;;;8.23;5.10;;;;;;;15.78;48.79;101060.47;3599969;39;20047;-66
2021/07/01 06:33:17;;;;;;;8.25;4.88;;;;;;;15.80;48.45;101062.06;3608364;39;20032;-67
2021/07/01 06:35:51;;;;;;;7.13;4.28;;;;;;;15.86;48.56;101059.66;3607445;39;20280;-67
2021/07/01 06:38:36;;;;;;;8.05;4.78;;;;;;;15.86;48.51;101063.28;3607217;39;20140;-71
2021/07/01 06:41:23;;;;;;;9.65;5.15;;;;;;;15.89;48.85;101054.69;3605458;39;20137;-70
2021/07/01 06:44:11;;;;;;;8.65;5.35;;;;;;;15.90;48.44;101061.94;3597516;39;20314;-70
2021/07/01 06:46:58;;;;;;;9.23;5.10;;;;;;;15.90;48.12;101061.94;3601978;39;20128;-70
2021/07/01 06:49:48;;;;;;;7.05;4.72;;;;;;;15.93;48.10;101066.25;3597530;39;20051;-68
2021/07/01 06:52:37;;;;;;;9.05;4.95;;;;;;;15.94;48.32;101068.00;3592227;39;20025;-72
2021/07/01 06:55:44;;;;;;;7.53;4.25;;;;;;;15.92;48.21;101070.91;3594451;39;20088;-73
2021/07/01 06:58:18;;;;;;;10.23;5.30;;;;;;;15.96;48.48;101068.72;3594612;39;20087;-73
2021/07/01 07:00:47;;;;;;;10.65;5.05;;;;;;;15.95;48.04;101078.88;3579144;40;20052;-72
2021/07/01 07:03:18;;;;;;;10.65;5.90;;;;;;;15.97;48.00;101079.56;3579915;40;20171;-73
2021/07/01 07:05:49;;;;;;;10.52;5.60;;;;;;;15.97;48.02;101078.72;3579795;40;20163;-73
2021/07/01 07:08:19;;;;;;;9.80;5.05;;;;;;;15.97;48.10;101087.84;3572786;40;20037;-73
2021/07/01 07:10:47;;;;;;;7.72;4.65;;;;;;;15.95;47.82;101087.16;3579050;40;20065;-72
2021/07/01 07:13:16;;;;;;;8.63;5.00;;;;;;;15.95;47.58;101086.28;3589496;40;20068;-72
2021/07/01 07:15:45;;;;;;;10.43;5.22;;;;;;;15.92;47.52;101083.84;3596968;39;20089;-73
2021/07/01 07:18:16;;;;;;;8.20;4.82;;;;;;;15.92;47.52;101081.94;3611288;39;20035;-73
2021/07/01 07:20:46;;;;;;;8.43;4.68;;;;;;;15.90;47.88;101080.38;3612168;39;20097;-73
2021/07/01 07:23:20;;;;;;;11.65;4.82;;;;;;;15.90;48.19;101086.75;3604438;39;20043;-72
2021/07/01 07:25:48;;;;;;;7.68;4.63;;;;;;;15.89;47.70;101081.44;3611901;39;20109;-73
2021/07/01 07:28:20;;;;;;;8.40;4.82;;;;;;;15.92;47.65;101083.84;3613037;39;20042;-72
2021/07/01 07:30:52;;;;;;;9.60;4.82;;;;;;;15.88;47.63;101096.25;3602591;39;20411;-73
2021/07/01 07:33:24;;;;;;;7.25;4.97;;;;;;;15.88;47.52;101086.06;3597250;39;20386;-72
2021/07/01 07:35:54;;;;;;;10.68;4.90;;;;;;;15.87;47.63;101089.84;3597237;40;20338;-73
2021/07/01 07:38:27;;;;;;;6.95;3.97;;;;;;;15.89;47.87;101087.78;3609745;39;20326;-72
2021/07/01 07:40:56;;;;;;;7.90;4.75;;;;;;;15.84;47.86;101089.31;3596710;40;20040;-73
2021/07/01 07:43:25;;;;;;;7.78;4.80;;;;;;;15.85;47.84;101089.16;3600718;39;20052;-73
2021/07/01 07:45:55;;;;;;;8.10;4.70;;;;;;;15.86;47.40;101087.25;3605488;39;20355;-73
2021/07/01 07:48:23;;;;;;;9.18;4.60;;;;;;;15.84;48.08;101094.81;3609090;39;20140;-74
2021/07/01 07:50:53;;;;;;;8.88;4.75;;;;;;;15.86;47.54;101096.41;3607875;39;20223;-72
2021/07/01 07:53:26;;;;;;;6.57;4.43;;;;;;;15.87;47.96;101091.75;3611690;39;20062;-71
2021/07/01 07:56:02;;;;;;;8.45;4.55;;;;;;;15.87;47.40;101086.22;3606764;39;20373;-72
2021/07/01 07:58:33;;;;;;;7.97;4.38;;;;;;;15.86;47.71;101093.63;3610112;39;20034;-72
2021/07/01 08:01:02;;;;;;;7.20;4.22;;;;;;;15.85;47.35;101089.16;3602359;39;20478;-72
2021/07/01 08:03:33;;;;;;;7.65;4.35;;;;;;;15.86;47.64;101090.00;3603428;39;22415;-72
2021/07/01 08:06:03;;;;;;;7.90;3.78;;;;;;;15.85;47.73;101097.41;3586386;40;20036;-72
2021/07/01 08:08:33;;;;;;;8.98;3.88;;;;;;;15.87;47.83;101097.28;3588885;40;20126;-72
2021/07/01 08:11:04;;;;;;;7.28;4.65;;;;;;;15.86;47.32;101096.41;3602313;39;20039;-72
2021/07/01 08:13:33;;;;;;;6.18;3.53;;;;;;;15.85;47.33;101091.91;3612969;39;20039;-72
2021/07/01 08:16:04;;;;;;;6.88;3.70;;;;;;;15.85;47.80;101091.03;3611402;39;20035;-72
2021/07/01 08:18:38;;;;;;;7.72;3.90;;;;;;;15.86;47.25;101087.25;3609313;39;20051;-73
2021/07/01 08:21:08;;;;;;;8.50;3.58;;;;;;;15.84;47.15;101101.22;3605321;39;20101;-73
2021/07/01 08:23:39;;;;;;;6.13;3.42;;;;;;;15.83;47.66;101093.94;3609277;39;20035;-72
2021/07/01 08:26:07;;;;;;;10.48;4.30;;;;;;;15.79;47.47;101089.81;3597891;40;20040;-72
2021/07/01 08:28:35;;;;;;;5.97;3.38;;;;;;;15.80;47.40;101097.06;3609626;39;20060;-74
2021/07/01 08:31:08;;;;;;;6.55;3.80;;;;;;;15.82;47.55;101103.25;3611237;39;20414;-72
2021/07/01 08:33:38;;;;;;;;;;;;;;;15.54;48.21;101101.63;3618401;39;20132;-72
2021/07/01 08:36:06;;;;;;;6.90;3.38;;;;;;;15.76;47.72;101099.25;3605733;39;19932;-72
2021/07/01 08:38:37;;;;;;;7.93;3.50;;;;;;;15.81;47.45;101101.50;3601943;39;20051;-72
2021/07/01 08:41:13;;;;;;;6.30;3.67;;;;;;;15.83;47.33;101099.47;3611484;39;20047;-73
2021/07/01 08:43:49;;;;;;;6.43;3.58;;;;;;;15.82;47.25;101111.53;3610394;39;20068;-72
2021/07/01 08:46:24;;;;;;;6.13;3.55;;;;;;;15.84;47.50;101108.59;3592071;40;20056;-73
2021/07/01 08:49:01;;;;;;;5.78;3.33;;;;;;;15.83;47.22;101110.50;3614288;39;20311;-72
2021/07/01 08:51:33;;;;;;;6.38;3.47;;;;;;;15.82;47.49;101108.78;3611596;39;20113;-72
2021/07/01 08:54:24;;;;;;;7.07;4.35;;;;;;;15.83;47.49;101107.75;3584153;40;20472;-72
2021/07/01 08:56:54;;;;;;;5.28;3.53;;;;;;;15.81;47.29;101110.66;3603547;39;20060;-72
2021/07/01 08:59:24;;;;;;;6.60;3.38;;;;;;;15.84;46.90;101114.13;3611337;39;20039;-73
2021/07/01 09:01:57;;;;;;;4.43;2.90;;;;;;;15.84;46.82;101114.13;3586669;39;20059;-76
2021/07/01 09:04:30;;;;;;;5.15;2.88;;;;;;;15.81;47.56;101123.59;3606429;39;20054;-72
2021/07/01 09:07:01;;;;;;;6.85;3.10;;;;;;;15.80;47.50;101125.50;3613011;39;20062;-73
2021/07/01 09:09:33;;;;;;;7.45;3.58;;;;;;;15.82;47.42;101131.69;3601937;39;20051;-72
2021/07/01 09:12:06;;;;;;;5.93;2.97;;;;;;;15.81;46.96;101137.38;3601990;39;20063;-72
2021/07/01 09:14:36;;;;;;;6.05;3.15;;;;;;;15.81;47.21;101134.63;3606346;39;20036;-72
2021/07/01 09:17:09;;;;;;;5.93;2.90;;;;;;;15.82;47.34;101136.34;3602133;39;20046;-74
2021/07/01 09:19:38;;;;;;;4.70;2.60;;;;;;;15.78;47.12;101129.44;3614183;39;20054;-72
2021/07/01 09:22:11;;;;;;;4.38;2.55;;;;;;;15.81;47.65;101131.84;3611388;39;20353;-73
2021/07/01 09:24:42;;;;;;;5.05;2.88;;;;;;;15.81;47.35;101137.38;3605486;39;20051;-72
2021/07/01 09:27:13;;;;;;;5.10;2.35;;;;;;;15.81;47.49;101134.63;3600059;40;20438;-72
2021/07/01 09:29:43;;;;;;;5.18;2.90;;;;;;;15.79;47.18;101129.28;3605879;39;20032;-73
2021/07/01 09:32:12;;;;;;;4.75;2.28;;;;;;;15.80;47.61;101133.78;3608181;39;20060;-73
2021/07/01 09:34:42;;;;;;;7.15;2.97;;;;;;;15.81;47.27;101137.38;3597125;39;20056;-72
2021/07/01 09:37:10;;;;;;;4.53;2.10;;;;;;;15.80;47.47;101139.31;3611514;39;20067;-72
2021/07/01 09:39:40;;;;;;;5.30;2.30;;;;;;;15.82;47.20;101142.75;3601593;39;20036;-72
2021/07/01 09:42:11;;;;;;;4.18;2.53;;;;;;;15.82;47.07;101142.75;3611226;39;20050;-72
2021/07/01 09:44:40;;;;;;;4.28;2.50;;;;;;;15.82;47.36;101139.97;3618256;39;20072;-73
2021/07/01 09:47:10;;;;;;;5.05;2.45;;;;;;;15.84;47.06;101142.59;3603235;39;20054;-72
2021/07/01 09:49:40;;;;;;;4.47;2.30;;;;;;;15.82;47.30;101139.97;3583308;40;20048;-73
2021/07/01 09:52:11;;;;;;;5.90;2.63;;;;;;;15.84;47.21;101145.34;3610058;39;20043;-72
2021/07/01 09:54:41;;;;;;;5.32;2.80;;;;;;;15.84;46.88;101134.31;3612765;39;20109;-72
2021/07/01 09:57:17;;;;;;;5.72;2.42;;;;;;;15.87;47.25;101138.66;3591082;40;20080;-72
2021/07/01 09:59:50;;;;;;;4.68;2.42;;;;;;;15.85;47.31;101144.31;3590777;40;20408;-72
2021/07/01 10:02:19;;;;;;;5.65;2.90;;;;;;;15.84;47.29;101142.59;3610021;39;20354;-72
2021/07/01 10:04:48;;;;;;;6.40;2.90;;;;;;;15.85;47.57;101148.97;3611182;39;20132;-72
2021/07/01 10:07:18;;;;;;;5.05;2.55;;;;;;;15.86;47.63;101136.91;3601416;39;20391;-72
2021/07/01 10:09:49;;;;;;;4.97;2.65;;;;;;;15.86;47.21;101140.53;3617228;39;20054;-72
2021/07/01 10:12:21;;;;;;;6.32;2.92;;;;;;;15.89;47.70;101144.88;3602200;39;20349;-72
2021/07/01 10:14:52;;;;;;;7.35;3.50;;;;;;;15.88;47.75;101145.91;3601730;39;20100;-73
2021/07/01 10:17:22;;;;;;;6.55;3.20;;;;;;;15.90;47.21;101147.44;3601804;39;20035;-73
2021/07/01 10:20:02;;;;;;;6.18;3.38;;;;;;;15.93;47.36;101149.03;3604581;39;20071;-72
2021/07/01 10:22:37;;;;;;;5.78;3.13;;;;;;;15.93;47.05;101149.03;3611082;39;20048;-72
2021/07/01 10:25:06;;;;;;;5.15;3.17;;;;;;;15.94;47.08;101143.38;3616950;39;20027;-72
2021/07/01 10:27:40;;;;;;;5.47;3.55;;;;;;;16.00;47.14;101141.84;3610939;39;20054;-72
2021/07/01 10:30:16;;;;;;;5.55;2.90;;;;;;;16.01;46.94;101151.84;3603653;39;20129;-72
2021/07/01 10:32:46;;;;;;;6.53;2.90;;;;;;;15.98;46.82;101153.03;3600327;39;20052;-71
2021/07/01 10:35:26;;;;;;;5.45;2.97;;;;;;;16.01;46.90;101143.59;3589688;39;20165;-72
2021/07/01 10:37:57;;;;;;;5.07;3.58;;;;;;;16.00;47.04;101155.63;3610321;39;20418;-72
2021/07/01 10:40:25;;;;;;;6.05;3.38;;;;;;;15.99;46.81;101148.38;3599821;39;20104;-72
2021/07/01 10:42:56;;;;;;;5.18;2.80;;;;;;;16.00;46.75;101155.63;3602151;39;20051;-72
2021/07/01 10:45:25;;;;;;;5.55;3.22;;;;;;;16.00;46.90;101152.88;3616382;39;20069;-72
2021/07/01 10:47:54;;;;;;;5.88;3.15;;;;;;;15.99;47.18;101152.00;3597196;39;20104;-72
2021/07/01 10:50:28;;;;;;;6.35;3.60;;;;;;;16.01;46.71;101157.38;3599395;39;20048;-72
2021/07/01 10:53:03;;;;;;;5.90;3.30;;;;;;;16.00;47.16;101163.91;3606752;39;20035;-72
2021/07/01 10:55:41;;;;;;;5.38;3.58;;;;;;;16.03;46.63;101158.09;3617858;39;20407;-73
2021/07/01 10:58:22;;;;;;;7.05;4.07;;;;;;;16.00;47.07;101150.13;3616383;39;20095;-72
2021/07/01 11:00:53;;;;;;;7.35;3.92;;;;;;;16.00;47.27;101155.63;3611300;39;20076;-71
2021/07/01 11:03:31;;;;;;;6.95;3.78;;;;;;;15.99;46.75;101156.66;3602726;39;20400;-71
2021/07/01 11:06:01;;;;;;;5.82;3.97;;;;;;;16.00;46.91;101164.78;3604324;39;20322;-72
2021/07/01 11:08:31;;;;;;;6.55;4.00;;;;;;;15.99;47.50;101163.03;3602477;39;20464;-73
2021/07/01 11:11:02;;;;;;;5.75;4.07;;;;;;;16.00;47.38;101162.03;3595348;40;20724;-71
2021/07/01 11:13:55;;;;;;;6.68;3.97;;;;;;;16.00;47.45;101159.25;3599287;39;20050;-72
2021/07/01 11:16:33;;;;;;;8.20;4.03;;;;;;;16.02;46.88;101164.63;3605572;39;20048;-72
2021/07/01 11:19:02;;;;;;;6.32;4.10;;;;;;;15.99;47.01;101162.19;3611161;39;20107;-73
2021/07/01 11:21:31;;;;;;;7.88;4.13;;;;;;;15.98;47.17;101161.31;3606668;39;20063;-73
2021/07/01 11:24:13;;;;;;;7.38;4.38;;;;;;;16.00;46.97;101167.53;3602514;39;20284;-72
2021/07/01 11:26:43;;;;;;;6.40;3.70;;;;;;;15.96;46.92;101166.16;3614241;39;20036;-72
2021/07/01 11:29:13;;;;;;;5.68;4.05;;;;;;;15.97;47.22;101169.78;3609941;39;20043;-72
2021/07/01 11:31:44;;;;;;;6.82;3.97;;;;;;;15.96;47.09;101168.91;3612222;39;20079;-72
2021/07/01 11:34:14;;;;;;;5.95;3.65;;;;;;;15.95;47.93;101172.69;3602116;39;20051;-72
2021/07/01 11:36:49;;;;;;;7.45;3.50;;;;;;;15.97;47.18;101173.38;3607956;39;20115;-72
2021/07/01 11:39:23;;;;;;;5.57;3.70;;;;;;;15.97;47.59;101164.25;3598686;40;20082;-72
2021/07/01 11:41:52;;;;;;;7.75;3.85;;;;;;;15.96;47.29;101163.38;3612368;39;20095;-72
2021/07/01 11:44:22;;;;;;;6.55;3.35;;;;;;;15.99;47.38;101167.69;3594608;39;20058;-71
2021/07/01 11:46:52;;;;;;;5.55;3.63;;;;;;;16.00;47.45;101174.94;3602057;39;20062;-72
2021/07/01 11:49:21;;;;;;;6.40;4.20;;;;;;;16.00;47.43;101177.72;3611078;39;20043;-72
2021/07/01 11:51:49;;;;;;;7.75;3.80;;;;;;;15.99;46.98;101178.72;3592521;40;20060;-73
2021/07/01 11:54:20;;;;;;;5.97;3.70;;;;;;;16.01;47.11;101182.22;3606479;39;20063;-73
2021/07/01 11:56:58;;;;;;;6.65;3.50;;;;;;;15.99;47.20;101178.72;3606547;39;20152;-72
2021/07/01 11:59:30;;;;;;;5.97;3.53;;;;;;;15.99;47.45;101170.47;3604831;39;20040;-72
2021/07/01 12:01:59;;;;;;;7.20;3.30;;;;;;;15.97;47.59;101178.88;3602095;39;20047;-73
2021/07/01 12:04:32;;;;;;;5.35;3.60;;;;;;;15.99;47.31;101179.59;3602426;39;20092;-74
2021/07/01 12:07:08;;;;;;;4.88;2.88;;;;;;;15.97;47.63;101170.63;3614022;39;20137;-73